Hamois, Belgium
Current Conditions -  °F | °C
As of 3:25 AM on Saturday 29 Nov 2014 (Local Time) from EBFS Reporting Station
Few Clouds Few Clouds  
Wind Chill: 36°   Ceiling: Unl
Heat Index: 39°   Visibility: 6mi
Dew Point: 34°   Wind: 5mph
Humidity: 81%   Direction: 100°E
Pressure: 29.8"   Gusts: NA
Location:  50.34°N, 5.16°E
Report Text: EBFS 290225Z 10004KT 9999 FEW200 04/01 Q1009 BLU
Loading
Personal Weather Stations






























Interactive Weather Map New forecast layout! Learn more

10-Day Weather Forecast

Advertisements
Track Severe Weather on mobile